sensor_id;sensor_type;location;lat;lon;timestamp;pressure;altitude;pressure_sealevel;temperature;humidity
10618;BME280;5356;43.526;26.534;2023-01-30T00:01:41;99505.84;;;2.24;100.00
10618;BME280;5356;43.526;26.534;2023-01-30T00:04:07;99514.06;;;2.29;100.00
10618;BME280;5356;43.526;26.534;2023-01-30T00:06:32;99505.84;;;2.24;100.00
10618;BME280;5356;43.526;26.534;2023-01-30T00:08:58;99513.09;;;2.30;100.00
10618;BME280;5356;43.526;26.534;2023-01-30T00:11:23;99507.19;;;2.36;100.00
10618;BME280;5356;43.526;26.534;2023-01-30T00:13:50;99504.59;;;2.44;100.00
10618;BME280;5356;43.526;26.534;2023-01-30T00:16:17;99509.38;;;2.41;100.00
10618;BME280;5356;43.526;26.534;2023-01-30T00:18:43;99506.25;;;2.45;100.00
10618;BME280;5356;43.526;26.534;2023-01-30T00:21:11;99509.22;;;2.51;100.00
10618;BME280;5356;43.526;26.534;2023-01-30T00:23:37;99504.66;;;2.61;100.00
10618;BME280;5356;43.526;26.534;2023-01-30T00:26:04;99506.28;;;2.62;100.00
10618;BME280;5356;43.526;26.534;2023-01-30T00:28:30;99507.44;;;2.59;100.00
10618;BME280;5356;43.526;26.534;2023-01-30T00:30:56;99502.97;;;2.52;100.00
10618;BME280;5356;43.526;26.534;2023-01-30T00:33:23;99498.69;;;2.51;100.00
10618;BME280;5356;43.526;26.534;2023-01-30T00:35:50;99502.94;;;2.43;100.00
10618;BME280;5356;43.526;26.534;2023-01-30T00:38:16;99498.00;;;2.32;100.00
10618;BME280;5356;43.526;26.534;2023-01-30T00:40:42;99494.19;;;2.27;100.00
10618;BME280;5356;43.526;26.534;2023-01-30T00:43:12;99497.66;;;2.27;100.00
10618;BME280;5356;43.526;26.534;2023-01-30T00:45:57;99496.94;;;2.17;100.00
10618;BME280;5356;43.526;26.534;2023-01-30T00:48:41;99490.41;;;2.21;100.00
10618;BME280;5356;43.526;26.534;2023-01-30T00:51:06;99483.47;;;2.20;100.00
10618;BME280;5356;43.526;26.534;2023-01-30T00:53:32;99483.16;;;2.23;100.00
10618;BME280;5356;43.526;26.534;2023-01-30T00:55:57;99479.16;;;2.11;100.00
10618;BME280;5356;43.526;26.534;2023-01-30T00:58:23;99476.22;;;2.14;100.00
10618;BME280;5356;43.526;26.534;2023-01-30T01:00:50;99474.09;;;2.17;100.00
10618;BME280;5356;43.526;26.534;2023-01-30T01:03:16;99472.63;;;2.23;100.00
10618;BME280;5356;43.526;26.534;2023-01-30T01:05:42;99469.66;;;2.18;100.00
10618;BME280;5356;43.526;26.534;2023-01-30T01:08:07;99458.84;;;2.21;100.00
10618;BME280;5356;43.526;26.534;2023-01-30T01:10:33;99455.56;;;2.19;100.00
10618;BME280;5356;43.526;26.534;2023-01-30T01:12:58;99460.13;;;2.17;100.00
10618;BME280;5356;43.526;26.534;2023-01-30T01:15:25;99459.72;;;2.30;100.00
10618;BME280;5356;43.526;26.534;2023-01-30T01:17:52;99454.94;;;2.33;100.00
10618;BME280;5356;43.526;26.534;2023-01-30T01:20:18;99448.38;;;2.37;100.00
10618;BME280;5356;43.526;26.534;2023-01-30T01:22:44;99448.38;;;2.37;100.00
10618;BME280;5356;43.526;26.534;2023-01-30T01:25:10;99448.06;;;2.40;100.00
10618;BME280;5356;43.526;26.534;2023-01-30T01:27:36;99443.13;;;2.37;100.00
10618;BME280;5356;43.526;26.534;2023-01-30T01:30:02;99444.25;;;2.35;100.00
10618;BME280;5356;43.526;26.534;2023-01-30T01:32:28;99443.13;;;2.37;100.00
10618;BME280;5356;43.526;26.534;2023-01-30T01:34:53;99443.75;;;2.31;100.00
10618;BME280;5356;43.526;26.534;2023-01-30T01:37:18;99450.66;;;2.24;100.00
10618;BME280;5356;43.526;26.534;2023-01-30T01:39:44;99446.69;;;2.20;100.00
10618;BME280;5356;43.526;26.534;2023-01-30T01:42:32;99444.38;;;2.17;100.00
10618;BME280;5356;43.526;26.534;2023-01-30T01:45:21;99439.78;;;2.19;100.00
10618;BME280;5356;43.526;26.534;2023-01-30T01:47:58;99439.28;;;2.15;100.00
10618;BME280;5356;43.526;26.534;2023-01-30T01:50:41;99440.94;;;2.16;100.00
10618;BME280;5356;43.526;26.534;2023-01-30T01:53:11;99438.13;;;2.10;100.00
10618;BME280;5356;43.526;26.534;2023-01-30T01:55:37;99434.81;;;2.08;100.00
10618;BME280;5356;43.526;26.534;2023-01-30T01:58:10;99431.13;;;1.92;100.00
10618;BME280;5356;43.526;26.534;2023-01-30T02:00:37;99439.16;;;1.83;100.00
10618;BME280;5356;43.526;26.534;2023-01-30T02:03:06;99432.56;;;1.78;100.00
10618;BME280;5356;43.526;26.534;2023-01-30T02:05:35;99428.28;;;1.77;100.00
10618;BME280;5356;43.526;26.534;2023-01-30T02:08:18;99433.06;;;1.82;100.00
10618;BME280;5356;43.526;26.534;2023-01-30T02:11:07;99431.78;;;1.86;100.00
10618;BME280;5356;43.526;26.534;2023-01-30T02:13:34;99429.94;;;1.78;100.00
10618;BME280;5356;43.526;26.534;2023-01-30T02:16:01;99426.16;;;1.73;100.00
10618;BME280;5356;43.526;26.534;2023-01-30T02:18:31;99420.91;;;1.81;100.00
10618;BME280;5356;43.526;26.534;2023-01-30T02:23:52;99423.88;;;1.86;100.00
10618;BME280;5356;43.526;26.534;2023-01-30T02:29:44;99427.88;;;1.90;100.00
10618;BME280;5356;43.526;26.534;2023-01-30T02:38:00;99424.81;;;2.11;100.00
10618;BME280;5356;43.526;26.534;2023-01-30T02:49:10;99421.22;;;2.20;100.00
10618;BME280;5356;43.526;26.534;2023-01-30T02:51:40;99429.31;;;2.27;100.00
10618;BME280;5356;43.526;26.534;2023-01-30T02:54:07;99423.88;;;2.29;100.00
10618;BME280;5356;43.526;26.534;2023-01-30T02:56:52;99429.31;;;2.27;100.00
10618;BME280;5356;43.526;26.534;2023-01-30T02:59:28;99419.25;;;2.22;100.00
10618;BME280;5356;43.526;26.534;2023-01-30T03:10:27;99415.47;;;2.17;100.00
10618;BME280;5356;43.526;26.534;2023-01-30T03:18:04;99409.66;;;1.97;100.00
10618;BME280;5356;43.526;26.534;2023-01-30T03:20:36;99403.59;;;1.96;100.00
10618;BME280;5356;43.526;26.534;2023-01-30T03:23:02;99409.59;;;1.80;100.00
10618;BME280;5356;43.526;26.534;2023-01-30T03:25:28;99410.22;;;1.74;100.00
10618;BME280;5356;43.526;26.534;2023-01-30T03:27:54;99396.59;;;1.71;100.00
10618;BME280;5356;43.526;26.534;2023-01-30T03:30:20;99401.47;;;1.66;100.00
10618;BME280;5356;43.526;26.534;2023-01-30T03:32:47;99404.25;;;1.64;100.00
10618;BME280;5356;43.526;26.534;2023-01-30T03:35:12;99398.72;;;1.67;100.00
10618;BME280;5356;43.526;26.534;2023-01-30T03:37:42;99394.38;;;1.58;100.00
10618;BME280;5356;43.526;26.534;2023-01-30T03:40:08;99398.72;;;1.67;100.00
10618;BME280;5356;43.526;26.534;2023-01-30T03:42:34;99392.00;;;1.73;100.00
10618;BME280;5356;43.526;26.534;2023-01-30T03:44:59;99404.31;;;1.80;100.00
10618;BME280;5356;43.526;26.534;2023-01-30T03:47:25;99399.59;;;1.84;100.00
10618;BME280;5356;43.526;26.534;2023-01-30T03:49:50;99393.50;;;1.84;100.00
10618;BME280;5356;43.526;26.534;2023-01-30T03:52:15;99387.44;;;1.83;100.00
10618;BME280;5356;43.526;26.534;2023-01-30T03:54:41;99391.72;;;1.92;100.00
10618;BME280;5356;43.526;26.534;2023-01-30T03:57:06;99389.47;;;1.97;100.00
10618;BME280;5356;43.526;26.534;2023-01-30T03:59:32;99382.72;;;1.95;100.00
10618;BME280;5356;43.526;26.534;2023-01-30T04:01:57;99386.38;;;2.02;100.00
10618;BME280;5356;43.526;26.534;2023-01-30T04:04:22;99388.19;;;2.01;100.00
10618;BME280;5356;43.526;26.534;2023-01-30T04:06:48;99391.44;;;2.03;100.00
10618;BME280;5356;43.526;26.534;2023-01-30T04:09:13;99381.50;;;1.81;100.00
10618;BME280;5356;43.526;26.534;2023-01-30T04:11:39;99380.66;;;1.72;100.00
10618;BME280;5356;43.526;26.534;2023-01-30T04:14:04;99375.63;;;1.79;100.00
10618;BME280;5356;43.526;26.534;2023-01-30T04:16:30;99381.38;;;1.83;100.00
10618;BME280;5356;43.526;26.534;2023-01-30T04:18:55;99371.03;;;1.89;100.00
10618;BME280;5356;43.526;26.534;2023-01-30T04:21:21;99378.94;;;1.97;100.00
10618;BME280;5356;43.526;26.534;2023-01-30T04:23:46;99367.94;;;1.94;100.00
10618;BME280;5356;43.526;26.534;2023-01-30T04:26:12;99370.75;;;2.00;100.00
10618;BME280;5356;43.526;26.534;2023-01-30T04:28:38;99371.75;;;2.08;100.00
10618;BME280;5356;43.526;26.534;2023-01-30T04:31:04;99372.13;;;2.13;100.00
10618;BME280;5356;43.526;26.534;2023-01-30T04:33:31;99366.53;;;2.16;100.00
10618;BME280;5356;43.526;26.534;2023-01-30T04:36:00;99368.16;;;2.17;100.00
10618;BME280;5356;43.526;26.534;2023-01-30T04:38:27;99373.75;;;2.14;100.00
10618;BME280;5356;43.526;26.534;2023-01-30T04:40:54;99373.22;;;2.02;100.00
10618;BME280;5356;43.526;26.534;2023-01-30T04:43:21;99370.75;;;2.00;100.00
10618;BME280;5356;43.526;26.534;2023-01-30T04:45:48;99371.72;;;1.91;100.00
10618;BME280;5356;43.526;26.534;2023-01-30T04:48:15;99374.63;;;1.80;100.00
10618;BME280;5356;43.526;26.534;2023-01-30T04:50:42;99380.56;;;1.82;100.00
10618;BME280;5356;43.526;26.534;2023-01-30T04:53:09;99372.84;;;1.89;100.00
10618;BME280;5356;43.526;26.534;2023-01-30T04:55:35;99371.75;;;1.99;100.00
10618;BME280;5356;43.526;26.534;2023-01-30T04:58:01;99370.72;;;1.92;100.00
10618;BME280;5356;43.526;26.534;2023-01-30T05:00:27;99371.56;;;1.93;100.00
10618;BME280;5356;43.526;26.534;2023-01-30T05:02:52;99366.81;;;1.96;100.00
10618;BME280;5356;43.526;26.534;2023-01-30T05:05:23;99364.78;;;1.82;100.00
10618;BME280;5356;43.526;26.534;2023-01-30T05:07:49;99358.84;;;1.72;100.00
10618;BME280;5356;43.526;26.534;2023-01-30T05:10:15;99365.75;;;1.73;100.00
10618;BME280;5356;43.526;26.534;2023-01-30T05:12:41;99363.41;;;1.70;100.00
10618;BME280;5356;43.526;26.534;2023-01-30T05:15:07;99361.31;;;1.73;100.00
10618;BME280;5356;43.526;26.534;2023-01-30T05:17:33;99361.09;;;1.59;100.00
10618;BME280;5356;43.526;26.534;2023-01-30T05:19:59;99371.56;;;1.50;100.00
10618;BME280;5356;43.526;26.534;2023-01-30T05:22:24;99367.13;;;1.51;100.00
10618;BME280;5356;43.526;26.534;2023-01-30T05:24:50;99374.38;;;1.57;100.00
10618;BME280;5356;43.526;26.534;2023-01-30T05:27:16;99380.16;;;1.69;100.00
10618;BME280;5356;43.526;26.534;2023-01-30T05:29:41;99374.09;;;1.68;100.00
10618;BME280;5356;43.526;26.534;2023-01-30T05:32:11;99388.34;;;1.66;100.00
10618;BME280;5356;43.526;26.534;2023-01-30T05:34:37;99379.16;;;1.62;100.00
10618;BME280;5356;43.526;26.534;2023-01-30T05:37:02;99375.22;;;1.66;100.00
10618;BME280;5356;43.526;26.534;2023-01-30T05:39:27;99377.88;;;1.74;100.00
10618;BME280;5356;43.526;26.534;2023-01-30T05:41:53;99382.19;;;1.83;100.00
10618;BME280;5356;43.526;26.534;2023-01-30T05:44:18;99383.34;;;1.89;100.00
10618;BME280;5356;43.526;26.534;2023-01-30T05:46:44;99382.19;;;1.83;100.00
10618;BME280;5356;43.526;26.534;2023-01-30T05:49:09;99385.31;;;1.87;100.00
10618;BME280;5356;43.526;26.534;2023-01-30T05:51:34;99390.44;;;1.96;100.00
10618;BME280;5356;43.526;26.534;2023-01-30T05:54:00;99385.53;;;2.01;100.00
10618;BME280;5356;43.526;26.534;2023-01-30T05:56:25;99382.25;;;1.99;100.00
10618;BME280;5356;43.526;26.534;2023-01-30T05:58:55;99389.13;;;2.00;100.00
10618;BME280;5356;43.526;26.534;2023-01-30T06:01:21;99390.81;;;2.01;100.00
10618;BME280;5356;43.526;26.534;2023-01-30T06:03:48;99392.13;;;2.06;100.00
10618;BME280;5356;43.526;26.534;2023-01-30T06:06:14;99378.50;;;2.10;100.00
10618;BME280;5356;43.526;26.534;2023-01-30T06:08:39;99382.31;;;2.16;100.00
10618;BME280;5356;43.526;26.534;2023-01-30T06:11:14;99382.13;;;2.17;100.00
10618;BME280;5356;43.526;26.534;2023-01-30T06:13:39;99389.03;;;2.18;100.00
10618;BME280;5356;43.526;26.534;2023-01-30T06:16:07;99385.56;;;2.18;100.00
10618;BME280;5356;43.526;26.534;2023-01-30T06:18:33;99378.19;;;2.13;100.00
10618;BME280;5356;43.526;26.534;2023-01-30T06:20:58;99379.66;;;2.16;100.00
10618;BME280;5356;43.526;26.534;2023-01-30T06:23:24;99376.22;;;2.15;100.00
10618;BME280;5356;43.526;26.534;2023-01-30T06:25:51;99380.03;;;2.21;100.00
10618;BME280;5356;43.526;26.534;2023-01-30T06:28:18;99374.75;;;2.21;100.00
10618;BME280;5356;43.526;26.534;2023-01-30T06:30:43;99374.75;;;2.13;100.00
10618;BME280;5356;43.526;26.534;2023-01-30T06:33:09;99373.03;;;2.03;100.00
10618;BME280;5356;43.526;26.534;2023-01-30T06:35:38;99374.06;;;2.11;100.00
10618;BME280;5356;43.526;26.534;2023-01-30T06:38:04;99370.31;;;2.13;100.00
10618;BME280;5356;43.526;26.534;2023-01-30T06:40:30;99366.19;;;2.11;100.00
10618;BME280;5356;43.526;26.534;2023-01-30T06:42:55;99365.53;;;2.09;100.00
10618;BME280;5356;43.526;26.534;2023-01-30T06:45:20;99366.84;;;2.13;100.00
10618;BME280;5356;43.526;26.534;2023-01-30T06:47:48;99372.75;;;2.15;100.00
10618;BME280;5356;43.526;26.534;2023-01-30T06:50:14;99370.44;;;2.12;100.00
10618;BME280;5356;43.526;26.534;2023-01-30T06:52:45;99368.00;;;2.10;100.00
10618;BME280;5356;43.526;26.534;2023-01-30T06:55:13;99363.56;;;2.11;100.00
10618;BME280;5356;43.526;26.534;2023-01-30T06:57:39;99365.06;;;2.21;100.00
10618;BME280;5356;43.526;26.534;2023-01-30T07:00:07;99368.66;;;2.20;100.00
10618;BME280;5356;43.526;26.534;2023-01-30T07:02:33;99366.19;;;2.11;100.00
10618;BME280;5356;43.526;26.534;2023-01-30T07:05:04;99367.19;;;2.10;100.00
10618;BME280;5356;43.526;26.534;2023-01-30T07:07:31;99370.13;;;2.15;100.00
10618;BME280;5356;43.526;26.534;2023-01-30T07:09:57;99372.31;;;2.28;100.00
10618;BME280;5356;43.526;26.534;2023-01-30T07:12:24;99373.94;;;2.37;100.00
10618;BME280;5356;43.526;26.534;2023-01-30T07:14:51;99366.41;;;2.42;100.00
10618;BME280;5356;43.526;26.534;2023-01-30T07:17:17;99369.50;;;2.37;100.00
10618;BME280;5356;43.526;26.534;2023-01-30T07:19:43;99369.03;;;2.42;100.00
10618;BME280;5356;43.526;26.534;2023-01-30T07:22:09;99369.53;;;2.45;100.00
10618;BME280;5356;43.526;26.534;2023-01-30T07:24:34;99364.75;;;2.49;100.00
10618;BME280;5356;43.526;26.534;2023-01-30T07:27:00;99367.09;;;2.52;100.00
10618;BME280;5356;43.526;26.534;2023-01-30T07:29:25;99367.25;;;2.59;100.00
10618;BME280;5356;43.526;26.534;2023-01-30T07:31:51;99364.09;;;2.72;100.00
10618;BME280;5356;43.526;26.534;2023-01-30T07:34:16;99361.47;;;2.80;100.00
10618;BME280;5356;43.526;26.534;2023-01-30T07:36:42;99363.78;;;2.83;100.00
10618;BME280;5356;43.526;26.534;2023-01-30T07:39:07;99362.63;;;2.77;100.00
10618;BME280;5356;43.526;26.534;2023-01-30T07:41:34;99358.69;;;2.81;100.00
10618;BME280;5356;43.526;26.534;2023-01-30T07:43:59;99355.88;;;2.83;100.00
10618;BME280;5356;43.526;26.534;2023-01-30T07:46:25;99354.41;;;2.88;100.00
10618;BME280;5356;43.526;26.534;2023-01-30T07:48:51;99359.84;;;3.03;100.00
10618;BME280;5356;43.526;26.534;2023-01-30T07:51:17;99361.00;;;3.01;100.00
10618;BME280;5356;43.526;26.534;2023-01-30T07:53:42;99359.31;;;3.00;100.00
10618;BME280;5356;43.526;26.534;2023-01-30T07:56:11;99355.22;;;2.97;100.00
10618;BME280;5356;43.526;26.534;2023-01-30T07:58:38;99354.06;;;3.00;100.00
10618;BME280;5356;43.526;26.534;2023-01-30T08:01:04;99359.50;;;3.06;100.00
10618;BME280;5356;43.526;26.534;2023-01-30T08:03:30;99349.13;;;3.05;100.00
10618;BME280;5356;43.526;26.534;2023-01-30T08:05:55;99343.69;;;3.14;100.00
10618;BME280;5356;43.526;26.534;2023-01-30T08:08:21;99336.94;;;3.20;100.00
10618;BME280;5356;43.526;26.534;2023-01-30T08:10:49;99335.47;;;3.18;100.00
10618;BME280;5356;43.526;26.534;2023-01-30T08:13:15;99336.78;;;3.13;100.00
10618;BME280;5356;43.526;26.534;2023-01-30T08:15:40;99341.56;;;3.02;100.00
10618;BME280;5356;43.526;26.534;2023-01-30T08:18:06;99345.84;;;3.03;100.00
10618;BME280;5356;43.526;26.534;2023-01-30T08:20:32;99339.59;;;3.12;100.00
10618;BME280;5356;43.526;26.534;2023-01-30T08:22:58;99342.69;;;3.15;100.00
10618;BME280;5356;43.526;26.534;2023-01-30T08:25:24;99331.50;;;3.22;100.00
10618;BME280;5356;43.526;26.534;2023-01-30T08:27:50;99332.16;;;3.24;100.00
10618;BME280;5356;43.526;26.534;2023-01-30T08:30:16;99333.13;;;3.23;100.00
10618;BME280;5356;43.526;26.534;2023-01-30T08:32:42;99319.13;;;3.30;100.00
10618;BME280;5356;43.526;26.534;2023-01-30T08:35:08;99316.84;;;3.27;100.00
10618;BME280;5356;43.526;26.534;2023-01-30T08:37:33;99328.50;;;3.33;100.00
10618;BME280;5356;43.526;26.534;2023-01-30T08:39:59;99322.75;;;3.29;100.00
10618;BME280;5356;43.526;26.534;2023-01-30T08:42:24;99321.75;;;3.30;100.00
10618;BME280;5356;43.526;26.534;2023-01-30T08:44:50;99323.72;;;3.36;100.00
10618;BME280;5356;43.526;26.534;2023-01-30T08:47:15;99321.41;;;3.42;100.00
10618;BME280;5356;43.526;26.534;2023-01-30T08:49:41;99322.28;;;3.26;100.00
10618;BME280;5356;43.526;26.534;2023-01-30T08:52:06;99318.00;;;3.25;100.00
10618;BME280;5356;43.526;26.534;2023-01-30T08:54:31;99308.94;;;3.27;100.00
10618;BME280;5356;43.526;26.534;2023-01-30T08:56:57;99308.94;;;3.27;100.00
10618;BME280;5356;43.526;26.534;2023-01-30T08:59:22;99307.78;;;3.30;100.00
10618;BME280;5356;43.526;26.534;2023-01-30T09:01:48;99306.63;;;3.32;100.00
10618;BME280;5356;43.526;26.534;2023-01-30T09:04:13;99312.22;;;3.29;100.00
10618;BME280;5356;43.526;26.534;2023-01-30T09:06:39;99300.25;;;3.19;100.00
10618;BME280;5356;43.526;26.534;2023-01-30T09:09:04;99287.59;;;3.14;100.00
10618;BME280;5356;43.526;26.534;2023-01-30T09:11:30;99284.78;;;3.15;100.00
10618;BME280;5356;43.526;26.534;2023-01-30T09:13:55;99286.16;;;3.03;100.00
10618;BME280;5356;43.526;26.534;2023-01-30T09:16:21;99277.72;;;3.08;100.00
10618;BME280;5356;43.526;26.534;2023-01-30T09:18:46;99279.72;;;3.06;100.00
10618;BME280;5356;43.526;26.534;2023-01-30T09:21:12;99278.25;;;3.03;100.00
10618;BME280;5356;43.526;26.534;2023-01-30T09:23:38;99275.44;;;3.05;100.00
10618;BME280;5356;43.526;26.534;2023-01-30T09:26:04;99273.63;;;3.05;100.00
10618;BME280;5356;43.526;26.534;2023-01-30T09:28:30;99267.38;;;3.06;100.00
10618;BME280;5356;43.526;26.534;2023-01-30T09:30:57;99261.94;;;3.08;100.00
10618;BME280;5356;43.526;26.534;2023-01-30T09:33:23;99271.66;;;3.07;100.00
10618;BME280;5356;43.526;26.534;2023-01-30T09:35:49;99266.06;;;3.10;100.00
10618;BME280;5356;43.526;26.534;2023-01-30T09:38:15;99263.25;;;3.12;100.00
10618;BME280;5356;43.526;26.534;2023-01-30T09:43:56;99253.06;;;3.09;100.00
10618;BME280;5356;43.526;26.534;2023-01-30T09:49:34;99249.00;;;2.90;100.00
10618;BME280;5356;43.526;26.534;2023-01-30T09:55:20;99238.69;;;2.80;100.00
10618;BME280;5356;43.526;26.534;2023-01-30T09:57:48;99231.63;;;2.81;100.00
10618;BME280;5356;43.526;26.534;2023-01-30T10:00:38;99236.69;;;2.82;100.00
10618;BME280;5356;43.526;26.534;2023-01-30T10:03:23;99233.69;;;2.93;100.00
10618;BME280;5356;43.526;26.534;2023-01-30T10:06:06;99227.28;;;2.96;100.00
10618;BME280;5356;43.526;26.534;2023-01-30T10:09:00;99217.75;;;2.95;100.00
10618;BME280;5356;43.526;26.534;2023-01-30T10:28:02;99192.19;;;2.64;100.00
10618;BME280;5356;43.526;26.534;2023-01-30T10:30:29;99186.13;;;2.64;100.00
10618;BME280;5356;43.526;26.534;2023-01-30T10:33:06;99183.81;;;2.69;100.00
10618;BME280;5356;43.526;26.534;2023-01-30T10:35:38;99186.75;;;2.66;100.00
10618;BME280;5356;43.526;26.534;2023-01-30T10:38:20;99176.28;;;2.58;100.00
10618;BME280;5356;43.526;26.534;2023-01-30T10:40:54;99167.56;;;2.57;100.00
10618;BME280;5356;43.526;26.534;2023-01-30T10:43:26;99166.25;;;2.53;100.00
10618;BME280;5356;43.526;26.534;2023-01-30T10:49:10;99152.94;;;2.55;100.00
10618;BME280;5356;43.526;26.534;2023-01-30T11:00:02;99137.47;;;2.60;100.00
10618;BME280;5356;43.526;26.534;2023-01-30T11:03:02;99131.25;;;2.61;100.00
10618;BME280;5356;43.526;26.534;2023-01-30T11:05:52;99118.22;;;2.67;100.00
10618;BME280;5356;43.526;26.534;2023-01-30T11:08:27;99116.59;;;2.66;100.00
10618;BME280;5356;43.526;26.534;2023-01-30T11:10:56;99110.47;;;2.74;100.00
10618;BME280;5356;43.526;26.534;2023-01-30T11:13:32;99113.63;;;2.69;100.00
10618;BME280;5356;43.526;26.534;2023-01-30T11:16:03;99102.81;;;2.56;100.00
10618;BME280;5356;43.526;26.534;2023-01-30T11:18:29;99102.66;;;2.58;100.00
10618;BME280;5356;43.526;26.534;2023-01-30T11:21:03;99097.19;;;2.67;100.00
10618;BME280;5356;43.526;26.534;2023-01-30T11:26:02;99085.38;;;2.63;100.00
10618;BME280;5356;43.526;26.534;2023-01-30T11:28:34;99071.00;;;2.74;100.00
10618;BME280;5356;43.526;26.534;2023-01-30T11:31:00;99076.59;;;2.79;100.00
10618;BME280;5356;43.526;26.534;2023-01-30T11:33:36;99068.72;;;2.71;100.00
10618;BME280;5356;43.526;26.534;2023-01-30T11:36:06;99066.09;;;2.71;100.00
10618;BME280;5356;43.526;26.534;2023-01-30T11:39:01;99049.72;;;2.61;100.00
10618;BME280;5356;43.526;26.534;2023-01-30T11:41:28;99044.47;;;2.61;100.00
10618;BME280;5356;43.526;26.534;2023-01-30T11:44:02;99044.13;;;2.64;100.00
10618;BME280;5356;43.526;26.534;2023-01-30T11:46:36;99046.38;;;2.75;100.00
10618;BME280;5356;43.526;26.534;2023-01-30T11:49:09;99037.13;;;2.79;100.00
10618;BME280;5356;43.526;26.534;2023-01-30T11:51:37;99038.78;;;2.80;100.00
10618;BME280;5356;43.526;26.534;2023-01-30T11:54:12;99028.19;;;2.88;100.00
10618;BME280;5356;43.526;26.534;2023-01-30T11:56:45;99029.53;;;2.84;100.00
10618;BME280;5356;43.526;26.534;2023-01-30T11:59:31;99025.44;;;2.82;100.00
10618;BME280;5356;43.526;26.534;2023-01-30T12:02:24;99023.00;;;2.80;100.00
10618;BME280;5356;43.526;26.534;2023-01-30T12:04:58;99022.13;;;2.88;100.00
10618;BME280;5356;43.526;26.534;2023-01-30T12:07:35;99018.66;;;2.87;100.00
10618;BME280;5356;43.526;26.534;2023-01-30T12:10:24;99015.13;;;2.80;100.00
10618;BME280;5356;43.526;26.534;2023-01-30T12:12:52;99017.16;;;2.93;100.00
10618;BME280;5356;43.526;26.534;2023-01-30T12:15:23;99010.06;;;2.93;100.00
10618;BME280;5356;43.526;26.534;2023-01-30T12:20:40;99003.53;;;2.89;100.00
10618;BME280;5356;43.526;26.534;2023-01-30T12:26:26;98995.38;;;2.76;100.00
10618;BME280;5356;43.526;26.534;2023-01-30T12:31:45;98989.38;;;2.90;100.00
10618;BME280;5356;43.526;26.534;2023-01-30T12:34:12;98995.28;;;2.92;100.00
10618;BME280;5356;43.526;26.534;2023-01-30T12:42:33;98996.56;;;2.97;100.00
10618;BME280;5356;43.526;26.534;2023-01-30T12:45:28;98992.47;;;2.94;100.00
10618;BME280;5356;43.526;26.534;2023-01-30T12:47:59;98984.13;;;2.90;100.00
10618;BME280;5356;43.526;26.534;2023-01-30T12:58:42;98976.16;;;2.99;100.00
10618;BME280;5356;43.526;26.534;2023-01-30T13:12:09;98954.63;;;2.80;100.00
10618;BME280;5356;43.526;26.534;2023-01-30T13:14:51;98945.72;;;2.81;100.00
10618;BME280;5356;43.526;26.534;2023-01-30T13:25:42;98935.66;;;2.62;100.00
10618;BME280;5356;43.526;26.534;2023-01-30T13:28:17;98943.38;;;2.63;100.00
10618;BME280;5356;43.526;26.534;2023-01-30T13:30:46;98944.19;;;2.64;100.00
10618;BME280;5356;43.526;26.534;2023-01-30T13:33:21;98941.16;;;2.75;100.00
10618;BME280;5356;43.526;26.534;2023-01-30T13:35:53;98931.47;;;2.76;100.00
10618;BME280;5356;43.526;26.534;2023-01-30T13:38:26;98927.38;;;2.73;100.00
10618;BME280;5356;43.526;26.534;2023-01-30T13:40:55;98941.53;;;2.72;100.00
10618;BME280;5356;43.526;26.534;2023-01-30T13:43:27;98936.63;;;2.69;100.00
10618;BME280;5356;43.526;26.534;2023-01-30T13:45:56;98921.84;;;2.60;100.00
10618;BME280;5356;43.526;26.534;2023-01-30T13:48:33;98924.69;;;2.58;100.00
10618;BME280;5356;43.526;26.534;2023-01-30T13:56:43;98905.94;;;2.61;100.00
10618;BME280;5356;43.526;26.534;2023-01-30T14:09:47;98895.69;;;2.89;100.00
10618;BME280;5356;43.526;26.534;2023-01-30T14:12:23;98894.59;;;2.99;100.00
10618;BME280;5356;43.526;26.534;2023-01-30T14:20:26;98895.44;;;3.14;100.00
10618;BME280;5356;43.526;26.534;2023-01-30T14:22:57;98888.38;;;3.14;100.00
10618;BME280;5356;43.526;26.534;2023-01-30T14:30:49;98889.78;;;3.02;100.00
10618;BME280;5356;43.526;26.534;2023-01-30T14:38:36;98867.94;;;3.02;100.00
10618;BME280;5356;43.526;26.534;2023-01-30T14:51:46;98870.22;;;3.05;100.00
10618;BME280;5356;43.526;26.534;2023-01-30T14:56:59;98870.41;;;3.03;100.00
10618;BME280;5356;43.526;26.534;2023-01-30T15:09:44;98868.28;;;2.99;100.00
10618;BME280;5356;43.526;26.534;2023-01-30T15:12:18;98861.50;;;3.04;100.00
10618;BME280;5356;43.526;26.534;2023-01-30T15:17:58;98871.75;;;3.14;100.00
10618;BME280;5356;43.526;26.534;2023-01-30T15:20:40;98872.59;;;3.14;100.00
10618;BME280;5356;43.526;26.534;2023-01-30T15:23:16;98872.69;;;3.06;100.00
10618;BME280;5356;43.526;26.534;2023-01-30T15:31:59;98868.28;;;2.99;100.00
10618;BME280;5356;43.526;26.534;2023-01-30T15:34:31;98866.84;;;2.96;100.00
10618;BME280;5356;43.526;26.534;2023-01-30T15:36:58;98871.38;;;3.02;100.00
10618;BME280;5356;43.526;26.534;2023-01-30T15:39:26;98871.56;;;3.01;100.00
10618;BME280;5356;43.526;26.534;2023-01-30T15:41:53;98874.72;;;2.96;100.00
10618;BME280;5356;43.526;26.534;2023-01-30T15:47:15;98862.94;;;2.92;100.00
10618;BME280;5356;43.526;26.534;2023-01-30T15:50:01;98856.50;;;2.95;100.00
10618;BME280;5356;43.526;26.534;2023-01-30T15:52:46;98863.19;;;2.82;100.00
10618;BME280;5356;43.526;26.534;2023-01-30T15:55:19;98850.16;;;2.89;100.00
10618;BME280;5356;43.526;26.534;2023-01-30T15:58:00;98848.50;;;2.88;100.00
10618;BME280;5356;43.526;26.534;2023-01-30T16:00:30;98849.66;;;2.85;100.00
10618;BME280;5356;43.526;26.534;2023-01-30T16:02:58;98853.22;;;2.78;100.00
10618;BME280;5356;43.526;26.534;2023-01-30T16:05:26;98852.47;;;2.69;100.00
10618;BME280;5356;43.526;26.534;2023-01-30T16:07:53;98844.28;;;2.64;100.00
10618;BME280;5356;43.526;26.534;2023-01-30T16:10:28;98845.09;;;2.64;100.00
10618;BME280;5356;43.526;26.534;2023-01-30T16:12:56;98840.66;;;2.65;100.00
10618;BME280;5356;43.526;26.534;2023-01-30T16:20:45;98838.38;;;2.62;100.00